Time;durP1;ratioP1;P1;durP2;ratioP2;P2;SDS_P1;SDS_P2;PMS_P1;PMS_P2;Temp;Humidity;BMP_temperature;BMP_pressure;BME280_temperature;BME280_humidity;BME280_pressure;Samples;Min_cycle;Max_cycle;Signal;HPM_P1;HPM_P2
2022/01/26 00:07:56;;;;;;;11.32;9.48;;;;;;;18.57;41.19;102557.09;5012108;28;20378;-76
2022/01/26 00:10:23;;;;;;;11.88;9.82;;;;;;;18.58;41.07;102549.91;5011896;28;20049;-76
2022/01/26 00:12:50;;;;;;;12.30;10.18;;;;;;;18.58;41.15;102553.44;5011863;28;20046;-76
2022/01/26 00:15:18;;;;;;;11.63;10.38;;;;;;;18.60;41.04;102548.03;5012043;28;20050;-76
2022/01/26 00:17:46;;;;;;;12.73;10.48;;;;;;;18.59;40.96;102549.81;5010685;28;20054;-76
2022/01/26 00:20:28;;;;;;;12.85;9.60;;;;;;;18.61;40.90;102547.06;5011435;28;20404;-77
2022/01/26 00:26:10;;;;;;;15.50;10.20;;;;;;;18.63;40.85;102537.97;5062253;28;20072;-76
2022/01/26 00:28:56;;;;;;;11.95;9.32;;;;;;;18.63;40.79;102537.97;5071965;28;20511;-77
2022/01/26 00:39:53;;;;;;;11.48;9.80;;;;;;;18.65;40.81;102525.34;5031919;28;20297;-77
2022/01/26 00:42:22;;;;;;;11.15;9.10;;;;;;;18.66;40.71;102521.69;5015692;28;20053;-76
2022/01/26 00:44:50;;;;;;;11.07;9.90;;;;;;;18.66;40.77;102523.53;5032406;28;20056;-77
2022/01/26 00:47:18;;;;;;;12.18;9.85;;;;;;;18.67;40.49;102525.25;5031968;28;20406;-77
2022/01/26 00:49:45;;;;;;;11.07;9.90;;;;;;;18.67;40.67;102520.75;5031613;28;20201;-77
2022/01/26 00:52:19;;;;;;;11.23;9.60;;;;;;;18.67;40.59;102518.06;5032080;28;20050;-76
2022/01/26 00:54:46;;;;;;;13.00;10.25;;;;;;;18.67;40.78;102511.84;5032557;28;20057;-76
2022/01/26 00:57:14;;;;;;;12.13;9.73;;;;;;;18.67;40.48;102512.69;5015303;28;20065;-76
2022/01/26 00:59:42;;;;;;;11.80;9.88;;;;;;;18.67;40.62;102501.09;5031548;28;20049;-76
2022/01/26 01:02:09;;;;;;;10.88;9.77;;;;;;;18.68;40.69;102500.19;5016715;28;20495;-76
2022/01/26 01:04:37;;;;;;;11.10;9.90;;;;;;;18.68;40.55;102503.72;4915548;29;20483;-76
2022/01/26 01:07:06;;;;;;;10.57;9.48;;;;;;;18.69;40.53;102502.75;4931559;28;20083;-76
2022/01/26 01:09:34;;;;;;;11.02;9.38;;;;;;;18.69;40.33;102500.06;4932248;29;20052;-76
2022/01/26 01:12:03;;;;;;;11.82;10.50;;;;;;;18.69;40.35;102505.44;4931547;28;20051;-76
2022/01/26 01:14:35;;;;;;;12.55;10.32;;;;;;;18.70;40.48;102500.97;4946176;28;20059;-76
2022/01/26 01:17:06;;;;;;;11.40;10.13;;;;;;;18.70;40.31;102507.19;4951232;29;20161;-76
2022/01/26 01:19:39;;;;;;;10.95;9.27;;;;;;;18.69;40.42;102505.44;4952747;28;20047;-76
2022/01/26 01:22:38;;;;;;;11.27;9.88;;;;;;;18.69;40.47;102497.41;4996698;28;20496;-76
2022/01/26 01:30:35;;;;;;;12.40;10.05;;;;;;;18.70;40.50;102493.78;4988341;28;20051;-76
2022/01/26 01:33:07;;;;;;;11.75;10.27;;;;;;;18.70;40.47;102496.47;4971685;28;20046;-76
2022/01/26 01:35:38;;;;;;;11.77;10.00;;;;;;;18.69;40.43;102492.03;4971638;28;20051;-76
2022/01/26 01:38:11;;;;;;;11.63;10.30;;;;;;;18.70;40.41;102485.72;4992364;28;20054;-76
2022/01/26 01:40:41;;;;;;;11.90;10.30;;;;;;;18.70;40.43;102491.09;5010768;28;20042;-77
2022/01/26 01:43:09;;;;;;;11.95;10.35;;;;;;;18.70;40.50;102495.59;5010648;28;20393;-77
2022/01/26 01:45:43;;;;;;;11.80;9.68;;;;;;;18.70;40.50;102493.78;5010392;28;20053;-77
2022/01/26 01:48:13;;;;;;;12.10;9.88;;;;;;;18.71;40.44;102486.59;5010572;28;20045;-76
2022/01/26 01:50:42;;;;;;;12.50;10.32;;;;;;;18.72;40.34;102485.66;5009123;28;20500;-77
2022/01/26 01:53:11;;;;;;;11.93;10.15;;;;;;;18.72;40.42;102482.97;5010264;28;20060;-77
2022/01/26 01:55:40;;;;;;;12.32;9.80;;;;;;;18.73;40.48;102480.19;5009358;28;20057;-77
2022/01/26 01:58:09;;;;;;;10.70;9.57;;;;;;;18.73;40.34;102488.25;5010312;28;20505;-77
2022/01/26 02:00:37;;;;;;;11.00;9.55;;;;;;;18.73;40.45;102484.72;5069988;28;20053;-76
2022/01/26 02:03:05;;;;;;;11.18;9.65;;;;;;;18.73;40.31;102482.88;5009198;28;20060;-76
2022/01/26 02:05:33;;;;;;;11.82;10.10;;;;;;;18.72;40.11;102480.31;5010033;28;20050;-77
2022/01/26 02:08:00;;;;;;;11.93;10.25;;;;;;;18.71;40.35;102476.72;5010131;28;20389;-76
2022/01/26 02:10:29;;;;;;;10.98;9.88;;;;;;;18.73;40.24;102482.03;5010355;28;20474;-76
2022/01/26 02:13:36;;;;;;;12.18;10.88;;;;;;;18.71;40.29;102474.03;5008967;28;20057;-76
2022/01/26 02:54:39;;;;;;;12.60;11.30;;;;;;;18.68;40.44;102438.47;4994034;28;20054;-76
2022/01/26 03:05:20;;;;;;;15.48;11.82;;;;;;;18.69;40.27;102433.00;5033847;28;20058;-76
2022/01/26 03:08:08;;;;;;;14.38;11.80;;;;;;;18.70;40.50;102433.91;5017776;28;20061;-76
2022/01/26 03:10:45;;;;;;;13.45;11.93;;;;;;;18.70;40.28;102432.06;5033749;28;20056;-76
2022/01/26 03:13:18;;;;;;;13.90;11.60;;;;;;;18.69;40.33;102433.00;5034089;28;20053;-76
2022/01/26 03:15:51;;;;;;;;;;;;;;;18.70;40.44;102426.72;5017900;28;20061;-76
2022/01/26 03:21:08;;;;;;;15.15;12.70;;;;;;;18.69;40.49;102418.72;5033790;28;20054;-76
2022/01/26 03:34:19;;;;;;;;;;;;;;;18.69;40.47;102405.31;5053692;28;20064;-76
2022/01/26 03:36:51;;;;;;;15.32;13.48;;;;;;;18.69;40.35;102395.44;5053221;28;19928;-76
2022/01/26 03:39:21;;;;;;;16.58;12.70;;;;;;;18.69;40.33;102397.28;5053718;28;20452;-76
2022/01/26 03:42:14;;;;;;;14.88;12.68;;;;;;;18.69;40.29;102392.78;5015173;28;20065;-76
2022/01/26 03:44:36;;;;;;;14.07;12.30;;;;;;;18.67;40.48;102399.16;5012237;28;20050;-76
2022/01/26 03:47:04;;;;;;;16.00;13.68;;;;;;;18.68;40.25;102400.91;5012562;28;20050;-76
2022/01/26 03:49:31;;;;;;;15.00;13.40;;;;;;;18.67;40.39;102389.28;5012322;28;20385;-76
2022/01/26 03:51:58;;;;;;;15.95;13.45;;;;;;;18.67;40.37;102397.34;5009763;28;20054;-76
2022/01/26 03:54:26;;;;;;;18.42;13.60;;;;;;;18.66;40.44;102395.63;5012507;28;20067;-76
2022/01/26 03:56:53;;;;;;;18.50;14.63;;;;;;;18.66;40.37;102395.63;5012105;28;20045;-76
2022/01/26 03:59:21;;;;;;;16.63;13.88;;;;;;;18.64;40.58;102389.50;5018457;28;20073;-76
2022/01/26 04:01:48;;;;;;;15.80;13.57;;;;;;;18.64;40.55;102394.88;5023567;28;20038;-76
2022/01/26 04:04:16;;;;;;;15.63;12.35;;;;;;;18.65;40.35;102385.00;5011849;28;20046;-76
2022/01/26 04:06:44;;;;;;;16.42;13.77;;;;;;;18.64;40.65;102389.50;5012006;28;20049;-76
2022/01/26 04:09:14;;;;;;;17.75;13.98;;;;;;;18.64;40.50;102394.00;5012125;28;20050;-76
2022/01/26 04:11:48;;;;;;;16.65;13.45;;;;;;;18.63;40.43;102397.63;5011838;28;20045;-76
2022/01/26 04:14:20;;;;;;;16.45;12.90;;;;;;;18.62;40.55;102388.72;5011727;28;20428;-77
2022/01/26 04:16:48;;;;;;;14.70;13.10;;;;;;;18.61;40.53;102378.94;5011914;28;20050;-76
2022/01/26 04:19:16;;;;;;;16.15;13.38;;;;;;;18.60;40.43;102371.84;5012361;28;20046;-76
2022/01/26 04:24:51;;;;;;;18.15;14.05;;;;;;;18.59;40.57;102375.47;4970649;28;20078;-76
2022/01/26 04:27:26;;;;;;;18.95;13.48;;;;;;;18.58;40.60;102376.44;4954340;28;20145;-76
2022/01/26 04:29:53;;;;;;;17.05;14.60;;;;;;;18.57;40.71;102382.75;4954418;28;20486;-77
2022/01/26 04:32:20;;;;;;;16.02;13.55;;;;;;;18.57;40.71;102377.38;4970698;28;20065;-76
2022/01/26 04:34:49;;;;;;;15.65;13.68;;;;;;;18.57;40.74;102382.75;4970907;28;20101;-77
2022/01/26 04:37:32;;;;;;;17.35;13.88;;;;;;;18.57;40.67;102382.75;4970263;28;20081;-77
2022/01/26 04:40:04;;;;;;;16.85;14.10;;;;;;;18.57;40.59;102380.06;4970439;28;20074;-77
2022/01/26 04:45:09;;;;;;;18.17;15.00;;;;;;;18.56;40.56;102382.84;4970613;28;20059;-76
2022/01/26 04:47:37;;;;;;;16.30;13.65;;;;;;;18.54;40.64;102381.09;4970828;28;20055;-76
2022/01/26 04:50:08;;;;;;;18.88;13.75;;;;;;;18.53;40.72;102376.69;4954443;28;20406;-76
2022/01/26 04:52:36;;;;;;;18.05;15.10;;;;;;;18.53;40.69;102379.38;4970661;28;20058;-76
2022/01/26 04:55:04;;;;;;;19.20;15.18;;;;;;;18.51;40.43;102375.94;4970020;28;20065;-76
2022/01/26 04:57:31;;;;;;;19.08;14.98;;;;;;;18.51;40.67;102385.78;4970469;28;20055;-76
2022/01/26 04:59:58;;;;;;;21.25;15.30;;;;;;;18.50;40.61;102384.91;4992881;28;20065;-75
2022/01/26 05:02:26;;;;;;;19.50;14.32;;;;;;;18.49;40.60;102385.88;5011489;28;20053;-76
2022/01/26 05:04:53;;;;;;;21.88;15.18;;;;;;;18.50;40.41;102381.38;5010959;28;20517;-77
2022/01/26 05:07:21;;;;;;;16.75;13.70;;;;;;;18.51;40.50;102385.78;5010997;28;20046;-76
2022/01/26 05:09:48;;;;;;;17.50;12.63;;;;;;;18.52;40.39;102383.03;5011169;28;20049;-76
2022/01/26 05:12:17;;;;;;;17.77;14.68;;;;;;;18.53;40.31;102375.84;5010032;28;20046;-77
2022/01/26 05:14:46;;;;;;;19.77;13.70;;;;;;;18.54;40.43;102382.94;5010705;28;20057;-76
2022/01/26 05:17:14;;;;;;;16.00;13.38;;;;;;;18.54;40.41;102381.09;5010709;28;20049;-76
2022/01/26 05:19:42;;;;;;;19.70;14.70;;;;;;;18.56;40.37;102382.84;5011447;28;20465;-76
2022/01/26 05:22:09;;;;;;;18.13;13.57;;;;;;;18.55;40.30;102384.66;5009288;28;20061;-76
2022/01/26 05:24:36;;;;;;;14.88;12.77;;;;;;;18.55;40.38;102390.00;5102892;28;20042;-76
2022/01/26 05:27:04;;;;;;;15.90;13.60;;;;;;;18.56;40.37;102391.75;5108670;28;20659;-76
2022/01/26 05:29:31;;;;;;;18.75;13.68;;;;;;;18.54;40.40;102377.56;5010207;28;20045;-77
2022/01/26 05:31:59;;;;;;;17.98;13.35;;;;;;;18.56;40.38;102386.41;5010653;28;20046;-77
2022/01/26 05:34:26;;;;;;;16.08;12.82;;;;;;;18.56;40.34;102386.41;5010764;28;20049;-77
2022/01/26 05:36:53;;;;;;;17.42;13.68;;;;;;;18.55;40.33;102387.31;5008792;28;20054;-77
2022/01/26 05:39:21;;;;;;;18.52;14.50;;;;;;;18.56;40.33;102385.53;5010531;28;20052;-76
2022/01/26 05:41:49;;;;;;;17.88;14.15;;;;;;;18.55;40.26;102381.97;5010988;28;20046;-76
2022/01/26 05:44:17;;;;;;;16.50;13.65;;;;;;;18.55;40.24;102384.66;5010475;28;20053;-76
2022/01/26 05:46:48;;;;;;;21.08;15.43;;;;;;;18.54;40.32;102389.16;5009012;28;20046;-76
2022/01/26 05:49:17;;;;;;;19.30;13.85;;;;;;;18.56;40.23;102390.91;5010687;28;20046;-76
2022/01/26 05:51:46;;;;;;;17.75;13.88;;;;;;;18.54;40.31;102381.09;5010489;28;20401;-76
2022/01/26 05:54:15;;;;;;;17.88;14.25;;;;;;;18.54;40.36;102388.28;5008804;28;20056;-76
2022/01/26 05:56:44;;;;;;;19.27;14.85;;;;;;;18.54;40.13;102385.59;5009370;28;20042;-76
2022/01/26 05:59:15;;;;;;;18.63;14.50;;;;;;;18.53;40.17;102386.56;5009011;28;20049;-76
2022/01/26 06:01:43;;;;;;;17.40;13.30;;;;;;;18.53;40.16;102382.06;5024824;28;20057;-76
2022/01/26 06:04:10;;;;;;;20.08;14.15;;;;;;;18.52;40.26;102384.84;5010463;28;20042;-76
2022/01/26 06:06:38;;;;;;;18.45;14.75;;;;;;;18.51;40.22;102383.09;5008921;28;20370;-76
2022/01/26 06:09:09;;;;;;;18.42;15.07;;;;;;;18.50;40.23;102384.91;5009975;28;20057;-75
2022/01/26 06:11:37;;;;;;;19.80;14.73;;;;;;;18.50;40.23;102376.88;5010143;28;20034;-75
2022/01/26 06:14:06;;;;;;;18.67;14.73;;;;;;;18.49;40.17;102383.19;5010446;28;20053;-76
2022/01/26 06:16:34;;;;;;;19.15;14.93;;;;;;;18.50;40.33;102384.06;5008295;28;20042;-75
2022/01/26 06:19:01;;;;;;;20.45;15.30;;;;;;;18.49;40.12;102382.34;5009982;28;20049;-75
2022/01/26 06:21:29;;;;;;;20.38;15.73;;;;;;;18.49;40.12;102387.69;5010488;28;20046;-76
2022/01/26 06:23:57;;;;;;;20.77;14.48;;;;;;;18.49;40.30;102385.03;5007608;28;20056;-75
2022/01/26 06:26:24;;;;;;;18.17;14.95;;;;;;;18.48;40.17;102377.94;5009782;28;20050;-76
2022/01/26 06:28:52;;;;;;;19.02;15.10;;;;;;;18.48;40.24;102386.84;5005664;28;20050;-76
2022/01/26 06:31:19;;;;;;;21.88;15.95;;;;;;;18.48;40.16;102388.66;4992772;28;20035;-76
2022/01/26 06:33:47;;;;;;;20.23;15.10;;;;;;;18.47;40.23;102389.59;4990162;28;20050;-76
2022/01/26 06:36:16;;;;;;;21.75;15.40;;;;;;;18.46;40.26;102388.72;4990567;28;20042;-76
2022/01/26 06:38:46;;;;;;;21.13;16.10;;;;;;;18.46;40.43;102380.69;4989942;28;20054;-76
2022/01/26 06:41:15;;;;;;;19.90;15.95;;;;;;;18.46;40.44;102385.19;4990058;28;20374;-77
2022/01/26 06:43:49;;;;;;;22.90;16.25;;;;;;;18.46;40.42;102385.19;4990436;28;20058;-76
2022/01/26 06:46:27;;;;;;;19.15;15.32;;;;;;;18.45;40.42;102388.81;4990637;28;20402;-77
2022/01/26 06:49:28;;;;;;;20.42;15.98;;;;;;;18.44;40.39;102393.34;4988907;28;20046;-76
2022/01/26 06:51:49;;;;;;;21.52;16.02;;;;;;;18.43;40.47;102390.72;4991374;28;20057;-77
2022/01/26 06:54:16;;;;;;;21.75;15.82;;;;;;;18.44;40.43;102392.47;4989075;28;20087;-76
2022/01/26 06:56:45;;;;;;;23.08;16.73;;;;;;;18.44;40.04;102397.84;4990097;28;20058;-77
2022/01/26 06:59:18;;;;;;;20.55;15.20;;;;;;;18.44;40.39;102398.69;4990168;28;20050;-76
2022/01/26 07:01:45;;;;;;;19.33;15.20;;;;;;;18.43;40.35;102405.03;4987930;28;20065;-77
2022/01/26 07:04:13;;;;;;;21.15;15.65;;;;;;;18.43;40.33;102415.75;4990055;28;20051;-76
2022/01/26 07:06:40;;;;;;;22.92;16.38;;;;;;;18.44;40.45;102419.28;4989724;28;20047;-76
2022/01/26 07:09:08;;;;;;;20.58;15.68;;;;;;;18.41;40.57;102414.94;4989874;28;20131;-76
2022/01/26 07:11:35;;;;;;;20.55;15.77;;;;;;;18.38;40.89;102417.81;5021538;28;20039;-77
2022/01/26 07:14:07;;;;;;;21.75;16.83;;;;;;;18.38;41.00;102424.97;4988265;28;20094;-77
2022/01/26 07:22:07;;;;;;;26.70;18.95;;;;;;;18.32;41.28;102420.84;4990071;28;20038;-77
2022/01/26 07:24:34;;;;;;;26.98;17.95;;;;;;;18.32;41.01;102434.25;5049496;28;20058;-77
2022/01/26 07:27:01;;;;;;;25.08;17.67;;;;;;;18.31;41.09;102428.94;5095360;28;20403;-78
2022/01/26 07:29:29;;;;;;;27.63;17.77;;;;;;;18.30;40.96;102430.78;5094011;28;20054;-77
2022/01/26 07:31:57;;;;;;;23.23;17.42;;;;;;;18.29;40.94;102435.28;5011521;28;20046;-77
2022/01/26 07:34:25;;;;;;;21.35;16.58;;;;;;;18.28;40.81;102430.00;5012442;28;20489;-76
2022/01/26 07:36:58;;;;;;;24.88;18.63;;;;;;;18.27;40.81;102426.47;5012190;28;20045;-77
2022/01/26 07:42:17;;;;;;;27.08;18.35;;;;;;;18.28;40.74;102419.28;5005676;28;20057;-76
2022/01/26 07:44:48;;;;;;;22.98;17.38;;;;;;;18.26;40.90;102422.03;5012190;28;20053;-76
2022/01/26 07:47:16;;;;;;;23.05;17.17;;;;;;;18.26;40.70;102430.06;5012527;28;20046;-76
2022/01/26 07:49:43;;;;;;;27.38;18.00;;;;;;;18.26;40.75;102427.41;5011906;28;20045;-76
2022/01/26 07:52:13;;;;;;;22.83;17.38;;;;;;;18.25;40.87;102424.81;5012102;28;20478;-76
2022/01/26 07:54:41;;;;;;;23.92;18.00;;;;;;;18.25;41.24;102424.81;5012333;28;20042;-76
2022/01/26 07:57:08;;;;;;;29.65;18.20;;;;;;;18.24;41.75;102429.31;5012309;28;20046;-76
2022/01/26 07:59:35;;;;;;;26.05;17.98;;;;;;;18.23;41.73;102432.06;5011355;28;20054;-76
2022/01/26 08:02:03;;;;;;;25.52;17.40;;;;;;;18.22;41.69;102420.47;5102816;28;20070;-76
2022/01/26 08:04:31;;;;;;;22.85;16.92;;;;;;;18.21;41.67;102424.13;5115751;28;20487;-76
2022/01/26 08:06:59;;;;;;;22.20;16.95;;;;;;;18.22;41.42;102424.97;5115295;28;20040;-76
2022/01/26 08:09:26;;;;;;;20.98;16.58;;;;;;;18.21;41.35;102421.44;5055737;28;20397;-77
2022/01/26 08:11:53;;;;;;;21.10;16.20;;;;;;;18.20;41.26;102427.75;5012076;28;20050;-76
2022/01/26 08:14:21;;;;;;;22.10;16.50;;;;;;;18.21;41.14;102429.47;5010370;28;20069;-76
2022/01/26 08:16:48;;;;;;;22.90;17.13;;;;;;;18.21;41.14;102429.47;5012066;28;20049;-76
2022/01/26 08:19:17;;;;;;;22.70;17.95;;;;;;;18.21;41.13;102424.13;5011551;28;20042;-76
2022/01/26 08:21:45;;;;;;;23.33;17.83;;;;;;;18.21;40.92;102429.47;5011702;28;20504;-76
2022/01/26 08:24:14;;;;;;;24.33;16.83;;;;;;;18.21;40.96;102429.47;5011430;28;20041;-76
2022/01/26 08:26:46;;;;;;;22.67;16.45;;;;;;;18.20;40.80;102433.13;5011598;28;20057;-76
2022/01/26 08:29:23;;;;;;;21.00;15.93;;;;;;;18.21;40.97;102434.84;5010480;28;20084;-76
2022/01/26 08:31:51;;;;;;;21.95;16.67;;;;;;;18.20;40.87;102425.06;5010458;28;20481;-76
2022/01/26 08:34:18;;;;;;;19.63;16.23;;;;;;;18.20;40.80;102433.13;5008975;28;20057;-76
2022/01/26 08:36:46;;;;;;;22.08;17.08;;;;;;;18.20;40.65;102433.13;5011962;28;20054;-76
2022/01/26 08:44:06;;;;;;;22.05;16.40;;;;;;;18.19;40.78;102428.72;4998523;28;20038;-76
2022/01/26 08:46:34;;;;;;;20.80;16.10;;;;;;;18.19;40.60;102431.41;4990534;28;20058;-76
2022/01/26 08:49:04;;;;;;;26.17;18.52;;;;;;;18.18;40.50;102428.78;4991614;28;20050;-76
2022/01/26 08:51:36;;;;;;;28.25;18.80;;;;;;;18.19;40.16;102431.41;4990712;28;20042;-76
2022/01/26 08:54:04;;;;;;;26.40;17.45;;;;;;;18.18;40.09;102429.63;4991539;28;20495;-76
2022/01/26 08:56:31;;;;;;;27.10;19.17;;;;;;;18.18;40.10;102426.97;4991386;28;20050;-76
2022/01/26 08:59:00;;;;;;;25.65;18.55;;;;;;;18.18;39.97;102429.63;4991778;28;20047;-76
2022/01/26 09:01:27;;;;;;;22.70;16.73;;;;;;;18.19;40.04;102427.81;4991265;28;20061;-76
2022/01/26 09:03:55;;;;;;;24.77;18.08;;;;;;;18.18;40.07;102432.31;4991186;28;20047;-76
2022/01/26 09:06:22;;;;;;;23.02;17.65;;;;;;;18.18;39.93;102432.31;4991683;28;20494;-76
2022/01/26 09:08:59;;;;;;;25.10;17.00;;;;;;;18.18;40.17;102435.00;4991261;28;20401;-76
2022/01/26 09:11:26;;;;;;;21.80;17.17;;;;;;;18.19;39.96;102439.44;4991432;28;20043;-76
2022/01/26 09:13:59;;;;;;;23.17;16.85;;;;;;;18.19;39.94;102436.75;4991644;28;20058;-76
2022/01/26 09:16:29;;;;;;;23.60;17.50;;;;;;;18.18;39.93;102426.97;4991555;28;20054;-76
2022/01/26 09:19:02;;;;;;;23.13;17.10;;;;;;;18.18;40.09;102439.50;4991075;28;20494;-76
2022/01/26 09:21:30;;;;;;;20.33;16.80;;;;;;;18.17;39.82;102430.59;4989731;28;20050;-76
2022/01/26 09:23:57;;;;;;;20.50;16.67;;;;;;;18.18;40.06;102435.00;5003222;28;20073;-76
2022/01/26 09:26:25;;;;;;;22.90;17.10;;;;;;;18.18;40.02;102435.00;5093283;28;20403;-76
2022/01/26 09:28:52;;;;;;;23.38;17.27;;;;;;;18.18;39.94;102432.31;5092544;28;20052;-76
2022/01/26 09:31:20;;;;;;;20.10;16.52;;;;;;;18.17;39.76;102425.25;5060037;28;20047;-76
2022/01/26 09:33:47;;;;;;;22.77;16.42;;;;;;;18.17;39.84;102429.75;4989764;28;20043;-76
2022/01/26 09:36:14;;;;;;;20.98;16.10;;;;;;;18.18;39.88;102431.47;4991296;28;20417;-76
2022/01/26 09:38:42;;;;;;;20.23;15.68;;;;;;;18.17;39.84;102432.41;5004883;28;20065;-76
2022/01/26 09:41:09;;;;;;;21.88;16.58;;;;;;;18.17;39.68;102433.28;5010248;28;20050;-76
2022/01/26 09:43:37;;;;;;;20.88;16.33;;;;;;;18.17;40.03;102437.78;5010795;28;20046;-76
2022/01/26 09:46:05;;;;;;;23.02;15.90;;;;;;;18.16;40.01;102431.56;5010551;28;20046;-76
2022/01/26 09:48:34;;;;;;;22.35;16.85;;;;;;;18.15;40.23;102439.66;5010753;28;20394;-77
2022/01/26 09:51:02;;;;;;;21.88;15.95;;;;;;;18.12;39.93;102438.03;5010728;28;20493;-76
2022/01/26 09:53:32;;;;;;;24.90;18.02;;;;;;;18.10;39.82;102439.06;5026756;28;20409;-76
2022/01/26 09:55:59;;;;;;;23.08;16.67;;;;;;;18.07;39.54;102440.13;5010461;28;20045;-75
2022/01/26 09:58:27;;;;;;;22.33;17.75;;;;;;;18.06;39.40;102437.50;5008734;28;20057;-75
2022/01/26 10:01:04;;;;;;;23.42;17.98;;;;;;;18.03;39.21;102434.06;5032418;28;20055;-76
2022/01/26 10:03:34;;;;;;;21.38;17.13;;;;;;;18.02;39.20;102428.75;5113423;28;20043;-76
2022/01/26 10:06:07;;;;;;;25.60;18.90;;;;;;;18.00;39.02;102418.13;5113597;28;20054;-76
2022/01/26 10:17:19;;;;;;;22.73;17.48;;;;;;;17.94;38.64;102414.91;5113517;28;20043;-75
2022/01/26 10:19:37;;;;;;;22.10;18.10;;;;;;;17.93;38.76;102414.06;5111064;28;20414;-76
2022/01/26 10:22:04;;;;;;;21.67;17.48;;;;;;;17.93;38.58;102415.88;5111259;28;20058;-76
2022/01/26 10:24:33;;;;;;;24.52;18.45;;;;;;;17.92;38.48;102408.78;5113504;28;20048;-76
2022/01/26 10:27:01;;;;;;;23.90;18.25;;;;;;;17.92;38.55;102403.44;5112984;28;20498;-76
2022/01/26 10:29:29;;;;;;;25.17;18.83;;;;;;;17.93;38.49;102407.84;5113199;28;20050;-76
2022/01/26 10:31:58;;;;;;;27.10;20.67;;;;;;;17.91;38.33;102399.91;5113160;28;20043;-76
2022/01/26 10:34:25;;;;;;;25.52;18.80;;;;;;;17.91;38.33;102404.41;5004441;28;20042;-76
2022/01/26 10:37:00;;;;;;;22.80;18.35;;;;;;;17.90;38.25;102398.13;5009513;28;20049;-76
2022/01/26 10:39:37;;;;;;;24.58;18.00;;;;;;;17.89;38.18;102395.56;5010023;28;20429;-75
2022/01/26 10:42:10;;;;;;;26.17;19.30;;;;;;;17.89;38.21;102393.75;5008937;28;20057;-75
2022/01/26 10:45:19;;;;;;;22.00;17.55;;;;;;;17.90;38.34;102386.56;5009444;28;20053;-75
2022/01/26 10:47:38;;;;;;;22.95;18.73;;;;;;;17.92;37.99;102382.88;5008461;28;20065;-75
2022/01/26 10:53:09;;;;;;;22.70;18.00;;;;;;;17.95;37.88;102373.81;5009444;28;20058;-77
2022/01/26 10:55:38;;;;;;;25.27;18.15;;;;;;;17.97;37.82;102377.25;5009902;28;20401;-75
2022/01/26 10:58:07;;;;;;;21.40;16.83;;;;;;;17.98;38.10;102371.78;5009966;28;20050;-75
2022/01/26 11:00:41;;;;;;;24.98;17.45;;;;;;;17.99;37.90;102364.66;5000305;28;20086;-74
2022/01/26 11:03:09;;;;;;;22.38;17.15;;;;;;;17.99;38.08;102365.50;4992528;28;20047;-74
2022/01/26 11:05:39;;;;;;;21.98;16.75;;;;;;;17.98;38.07;102357.53;5007527;28;20050;-75
2022/01/26 11:08:12;;;;;;;20.85;15.57;;;;;;;18.00;38.29;102356.50;4997094;28;20055;-74
2022/01/26 11:10:45;;;;;;;18.40;14.85;;;;;;;18.00;38.39;102350.28;4991788;28;20061;-74
2022/01/26 11:13:28;;;;;;;19.23;15.68;;;;;;;18.02;38.40;102348.38;4977449;28;20573;-74
2022/01/26 11:16:13;;;;;;;20.77;15.48;;;;;;;18.00;38.22;102340.44;4992248;28;20121;-74
2022/01/26 11:18:52;;;;;;;18.40;14.90;;;;;;;18.03;38.33;102340.25;4992324;28;20367;-75
2022/01/26 11:21:36;;;;;;;19.42;14.63;;;;;;;18.04;38.22;102346.47;5009712;28;20050;-75
2022/01/26 11:24:21;;;;;;;18.92;14.05;;;;;;;18.04;38.51;102341.13;4991321;28;20054;-75
2022/01/26 11:27:10;;;;;;;18.58;14.27;;;;;;;18.05;38.53;102337.47;5115730;28;20109;-75
2022/01/26 11:29:43;;;;;;;18.40;14.52;;;;;;;18.04;39.00;102335.75;4993131;28;20486;-74
2022/01/26 11:32:35;;;;;;;17.92;14.38;;;;;;;18.05;38.70;102326.75;4992827;28;20050;-75
2022/01/26 11:35:07;;;;;;;18.73;13.82;;;;;;;18.05;38.70;102334.81;5007769;28;20053;-75
2022/01/26 11:37:45;;;;;;;17.95;13.35;;;;;;;18.06;38.77;102327.63;5012497;28;20050;-76
2022/01/26 11:46:09;;;;;;;15.98;13.02;;;;;;;18.10;38.88;102321.13;5012245;28;20057;-75
2022/01/26 11:48:38;;;;;;;16.60;12.75;;;;;;;18.09;38.89;102317.59;5011332;28;20050;-75
2022/01/26 11:51:06;;;;;;;15.77;13.13;;;;;;;18.07;38.75;102319.53;5010547;28;20054;-75
2022/01/26 11:53:33;;;;;;;17.48;13.40;;;;;;;18.06;38.74;102309.72;5011107;28;20042;-75
2022/01/26 11:56:13;;;;;;;16.25;13.10;;;;;;;18.05;39.18;102308.00;5011943;28;20045;-75
2022/01/26 11:58:45;;;;;;;14.30;12.57;;;;;;;18.05;39.14;102305.31;5012298;28;20053;-75
2022/01/26 12:01:26;;;;;;;17.10;13.65;;;;;;;18.04;39.02;102306.28;5003645;28;20494;-75
2022/01/26 12:04:03;;;;;;;14.98;11.70;;;;;;;18.04;39.10;102304.47;5115342;28;20040;-75
2022/01/26 12:06:37;;;;;;;13.88;11.60;;;;;;;18.03;39.12;102299.22;5115456;28;20043;-76
2022/01/26 12:09:07;;;;;;;15.88;12.30;;;;;;;18.03;39.07;102286.66;5114238;28;20102;-75
2022/01/26 12:11:35;;;;;;;14.88;12.88;;;;;;;18.03;39.11;102285.81;5115154;28;20051;-75
2022/01/26 12:14:10;;;;;;;16.10;12.68;;;;;;;18.03;39.15;102273.25;5113979;28;20051;-75
2022/01/26 12:16:44;;;;;;;13.15;11.75;;;;;;;18.04;39.21;102277.66;5114366;28;20040;-75
2022/01/26 12:35:55;;;;;;;14.93;11.80;;;;;;;18.03;39.48;102245.59;5038815;28;20061;-77
2022/01/26 12:38:40;;;;;;;16.48;11.65;;;;;;;18.03;39.57;102237.56;5012077;28;20062;-77
2022/01/26 12:41:21;;;;;;;14.05;10.90;;;;;;;18.03;39.60;102233.06;5009777;28;20066;-75
2022/01/26 12:43:57;;;;;;;13.43;11.55;;;;;;;18.03;39.64;102237.56;5009783;28;20050;-76
2022/01/26 12:46:30;;;;;;;15.15;11.25;;;;;;;18.02;39.62;102230.47;5012114;28;20054;-75
2022/01/26 12:48:59;;;;;;;12.38;10.65;;;;;;;18.02;39.76;102231.31;5011646;28;20054;-75
2022/01/26 12:51:28;;;;;;;12.38;11.15;;;;;;;18.02;39.66;102225.09;5011156;28;20053;-76
2022/01/26 12:53:58;;;;;;;12.20;10.40;;;;;;;18.02;39.67;102223.28;5008943;28;20067;-75
2022/01/26 12:56:27;;;;;;;13.82;11.38;;;;;;;18.02;39.71;102217.06;5010363;28;20050;-75
2022/01/26 12:59:07;;;;;;;13.88;11.27;;;;;;;18.02;39.66;102214.38;5092143;28;20054;-75
2022/01/26 13:01:36;;;;;;;14.52;11.35;;;;;;;18.02;39.74;102215.25;5031118;28;20446;-75
2022/01/26 13:04:06;;;;;;;12.80;10.57;;;;;;;18.03;39.73;102218.81;5011009;28;20072;-75
2022/01/26 13:06:51;;;;;;;13.30;10.25;;;;;;;18.02;39.84;102215.25;5010602;28;20046;-75
2022/01/26 13:09:21;;;;;;;13.10;10.20;;;;;;;18.02;39.51;102209.88;5009929;28;20054;-75
2022/01/26 13:11:50;;;;;;;13.40;11.10;;;;;;;18.03;39.85;102211.63;5010812;28;20046;-75
2022/01/26 13:14:25;;;;;;;12.55;10.00;;;;;;;18.04;39.78;102220.53;5010506;28;20054;-75
2022/01/26 13:19:55;;;;;;;;;;;;;;;18.03;39.88;102206.28;5011317;28;20061;-76
2022/01/26 13:22:51;;;;;;;12.13;9.57;;;;;;;18.03;39.92;102211.63;5010407;28;19928;-75
2022/01/26 13:26:02;;;;;;;11.52;9.02;;;;;;;18.04;39.93;102210.69;5032713;28;20043;-75
2022/01/26 13:50:07;;;;;;;10.23;9.13;;;;;;;18.08;39.81;102192.59;4988899;28;20406;-76
2022/01/26 13:52:52;;;;;;;10.52;9.43;;;;;;;18.08;39.92;102192.59;4972044;28;20058;-75
2022/01/26 14:00:42;;;;;;;10.18;8.93;;;;;;;18.07;40.62;102196.25;4963811;28;20418;-75
2022/01/26 14:03:12;;;;;;;11.30;9.63;;;;;;;18.06;40.82;102194.50;4978249;28;20073;-75
2022/01/26 14:05:40;;;;;;;10.20;8.48;;;;;;;18.04;40.80;102196.41;4988374;28;20065;-75
2022/01/26 14:08:07;;;;;;;11.80;8.85;;;;;;;18.04;40.82;102191.06;4988625;28;20220;-75
2022/01/26 14:10:37;;;;;;;10.93;9.55;;;;;;;18.03;40.77;102186.66;4988143;28;20066;-75
2022/01/26 14:13:05;;;;;;;10.98;9.10;;;;;;;18.04;40.64;102193.72;4988591;28;20061;-75
2022/01/26 14:15:46;;;;;;;11.45;8.82;;;;;;;18.02;40.51;102198.31;4994986;28;20053;-75